Time;durP1;ratioP1;P1;durP2;ratioP2;P2;SDS_P1;SDS_P2;PMS_P1;PMS_P2;Temp;Humidity;BMP_temperature;BMP_pressure;BME280_temperature;BME280_humidity;BME280_pressure;Samples;Min_cycle;Max_cycle;Signal;HPM_P1;HPM_P2
2022/01/12 00:00:20;;;;;;;;;;;-2.00;99.90;;;;;;5069864;28;20089;-72
2022/01/12 00:02:46;;;;;;;12.95;6.85;;;-2.10;99.90;;;;;;5093302;28;19910;-72
2022/01/12 00:05:11;;;;;;;11.48;7.30;;;-2.10;99.90;;;;;;5092195;28;20406;-72
2022/01/12 00:07:37;;;;;;;15.80;7.78;;;-2.10;99.90;;;;;;5083225;28;20020;-73
2022/01/12 00:10:03;;;;;;;12.25;7.22;;;-2.10;99.90;;;;;;5088980;28;20048;-72
2022/01/12 00:12:29;;;;;;;12.93;7.55;;;-2.10;99.90;;;;;;5091795;28;20023;-72
2022/01/12 00:14:57;;;;;;;16.17;7.18;;;-2.10;99.90;;;;;;5092370;28;20103;-73
2022/01/12 00:17:23;;;;;;;13.57;6.68;;;-2.00;99.90;;;;;;5091555;28;20028;-72
2022/01/12 00:19:49;;;;;;;12.35;6.95;;;-2.10;99.90;;;;;;5092078;28;20040;-72
2022/01/12 00:22:14;;;;;;;14.80;7.75;;;-2.10;99.90;;;;;;5091645;28;20047;-72
2022/01/12 00:35:36;;;;;;;11.90;6.35;;;-2.30;99.90;;;;;;5092410;28;20093;-72
2022/01/12 00:38:02;;;;;;;12.48;6.88;;;-2.40;99.90;;;;;;5091350;28;20016;-72
2022/01/12 00:40:28;;;;;;;12.82;6.57;;;-2.40;99.90;;;;;;5093745;28;20042;-73
2022/01/12 00:42:53;;;;;;;13.77;7.38;;;-2.40;99.90;;;;;;5091924;28;20054;-72
2022/01/12 00:45:20;;;;;;;12.93;7.43;;;-2.50;99.90;;;;;;5091400;28;20031;-72
2022/01/12 00:47:46;;;;;;;11.00;6.65;;;-2.50;99.90;;;;;;5092310;28;20050;-72
2022/01/12 00:50:12;;;;;;;11.70;6.78;;;-2.60;99.90;;;;;;5091235;28;20048;-72
2022/01/12 00:52:38;;;;;;;10.95;7.00;;;-2.60;99.90;;;;;;5091637;28;20028;-73
2022/01/12 00:55:04;;;;;;;14.35;7.40;;;-2.70;99.90;;;;;;5091293;28;20032;-72
2022/01/12 00:57:31;;;;;;;12.95;7.18;;;-2.70;99.90;;;;;;5092278;28;20024;-73
2022/01/12 00:59:56;;;;;;;13.85;7.05;;;-2.70;99.90;;;;;;5092366;28;20073;-72
2022/01/12 01:02:22;;;;;;;11.77;6.55;;;-2.80;99.90;;;;;;5086531;28;20023;-72
2022/01/12 01:04:48;;;;;;;11.95;7.40;;;-2.80;99.90;;;;;;5090837;28;20039;-72
2022/01/12 01:07:14;;;;;;;13.50;6.88;;;-2.70;99.90;;;;;;5090347;28;20028;-72
2022/01/12 01:09:46;;;;;;;13.50;7.10;;;-2.70;99.90;;;;;;5091760;28;20024;-72
2022/01/12 01:12:12;;;;;;;10.48;6.18;;;-2.70;99.90;;;;;;5071680;28;20435;-71
2022/01/12 01:15:03;;;;;;;12.00;7.18;;;-2.60;99.90;;;;;;5091264;28;20028;-72
2022/01/12 01:25:42;;;;;;;11.07;6.82;;;-2.40;99.90;;;;;;5095957;28;20104;-72
2022/01/12 01:28:09;;;;;;;10.07;6.30;;;-2.40;99.90;;;;;;5095467;28;20036;-72
2022/01/12 01:30:37;;;;;;;12.35;6.68;;;-2.50;99.90;;;;;;5095630;28;20113;-72
2022/01/12 01:33:07;;;;;;;10.13;7.00;;;-2.50;99.90;;;;;;5095083;28;20032;-71
2022/01/12 01:35:35;;;;;;;10.85;6.28;;;-2.50;99.90;;;;;;5077652;28;20112;-72
2022/01/12 01:38:02;;;;;;;9.88;6.40;;;-2.60;99.90;;;;;;5094951;28;20086;-71
2022/01/12 01:40:36;;;;;;;12.40;6.93;;;-2.60;99.90;;;;;;5095712;28;20036;-72
2022/01/12 01:53:49;;;;;;;11.20;6.40;;;-2.80;99.90;;;;;;5095366;28;20054;-72
2022/01/12 01:56:16;;;;;;;10.13;6.80;;;-2.80;99.90;;;;;;5084667;28;20465;-72
2022/01/12 01:58:41;;;;;;;10.70;6.25;;;-2.80;99.90;;;;;;5094513;28;20170;-72
2022/01/12 02:01:07;;;;;;;11.57;5.65;;;-2.70;99.90;;;;;;5094077;28;20155;-72
2022/01/12 02:03:33;;;;;;;10.65;6.25;;;-2.80;99.90;;;;;;5095400;28;20032;-72
2022/01/12 02:05:59;;;;;;;10.65;6.07;;;-2.90;99.90;;;;;;5094832;28;20413;-71
2022/01/12 02:08:26;;;;;;;10.05;5.40;;;-2.90;99.90;;;;;;5093875;28;20032;-72
2022/01/12 02:10:57;;;;;;;14.63;6.75;;;-3.00;99.90;;;;;;5094671;28;20059;-72
2022/01/12 02:13:23;;;;;;;9.55;6.10;;;-3.00;99.90;;;;;;5097299;28;20077;-73
2022/01/12 02:15:50;;;;;;;11.77;6.25;;;-3.10;99.90;;;;;;5056358;28;20029;-72
2022/01/12 02:35:20;;;;;;;11.80;6.45;;;-3.00;99.90;;;;;;5074175;28;20035;-71
2022/01/12 02:40:46;;;;;;;13.77;6.63;;;-3.10;99.90;;;;;;5073511;28;20036;-72
2022/01/12 02:43:17;;;;;;;12.57;7.15;;;-3.20;99.90;;;;;;5073526;28;20123;-72
2022/01/12 02:51:30;;;;;;;11.88;6.60;;;-3.30;99.90;;;;;;5076571;28;20054;-72
2022/01/12 02:53:56;;;;;;;12.90;7.00;;;-3.30;99.90;;;;;;5073549;28;20111;-72
2022/01/12 02:56:30;;;;;;;13.60;7.20;;;-3.40;99.90;;;;;;5072972;28;20104;-72
2022/01/12 02:58:59;;;;;;;10.85;7.07;;;-3.40;99.90;;;;;;5074026;28;20481;-72
2022/01/12 03:03:54;;;;;;;12.80;7.45;;;-3.50;99.90;;;;;;5073802;28;20488;-72
2022/01/12 03:06:25;;;;;;;18.42;8.75;;;-3.50;99.90;;;;;;5073015;28;20020;-72
2022/01/12 03:08:51;;;;;;;16.00;9.05;;;-3.50;99.90;;;;;;5073788;28;20025;-72
2022/01/12 03:11:19;;;;;;;15.52;8.70;;;-3.50;99.90;;;;;;5072382;28;20063;-72
2022/01/12 03:13:46;;;;;;;14.50;8.10;;;-3.50;99.90;;;;;;5073680;28;20363;-73
2022/01/12 03:16:20;;;;;;;14.75;8.48;;;-3.50;99.90;;;;;;5074228;28;20031;-72
2022/01/12 03:18:51;;;;;;;14.55;7.95;;;-3.50;99.90;;;;;;5092764;28;20388;-72
2022/01/12 03:21:21;;;;;;;16.92;8.88;;;-3.50;99.90;;;;;;5093036;28;20032;-72
2022/01/12 03:23:48;;;;;;;14.18;8.10;;;-3.50;99.90;;;;;;5093638;28;20016;-72
2022/01/12 03:26:13;;;;;;;15.13;8.05;;;-3.60;99.90;;;;;;5092638;28;20028;-72
2022/01/12 03:28:42;;;;;;;13.90;7.75;;;-3.70;99.90;;;;;;5093751;28;20024;-72
2022/01/12 03:38:56;;;;;;;16.38;8.75;;;-3.70;99.90;;;;;;5093301;28;20076;-73
2022/01/12 03:41:22;;;;;;;18.23;10.35;;;-3.70;99.90;;;;;;5092246;28;20043;-72
2022/01/12 03:43:48;;;;;;;19.52;10.02;;;-3.70;99.90;;;;;;5089691;28;20154;-72
2022/01/12 03:46:18;;;;;;;18.55;9.55;;;-3.70;99.90;;;;;;5089662;28;20421;-72
2022/01/12 03:48:43;;;;;;;16.13;9.70;;;-3.70;99.90;;;;;;5090168;28;20071;-72
2022/01/12 03:51:09;;;;;;;16.33;9.80;;;-3.80;99.90;;;;;;5092159;28;20078;-71
2022/01/12 03:53:35;;;;;;;17.05;9.85;;;-3.80;99.90;;;;;;5092923;28;20393;-72
2022/01/12 03:56:00;;;;;;;17.58;10.63;;;-3.80;99.90;;;;;;5092903;28;20023;-72
2022/01/12 03:58:26;;;;;;;18.00;9.45;;;-3.80;99.90;;;;;;5092156;28;20028;-73
2022/01/12 04:00:52;;;;;;;17.88;10.23;;;-3.90;99.90;;;;;;5092241;28;20032;-73
2022/01/12 04:03:17;;;;;;;19.60;10.45;;;-3.90;99.90;;;;;;5091974;28;20028;-72
2022/01/12 04:08:23;;;;;;;20.13;11.13;;;-3.90;99.90;;;;;;5092225;28;20081;-71
2022/01/12 04:10:58;;;;;;;18.70;10.80;;;-3.90;99.90;;;;;;5092384;28;20028;-72
2022/01/12 04:13:26;;;;;;;23.60;12.43;;;-3.90;99.90;;;;;;5092011;28;20099;-71
2022/01/12 04:16:05;;;;;;;19.88;11.93;;;-3.90;99.90;;;;;;5091813;28;20035;-71
2022/01/12 04:18:32;;;;;;;20.85;11.90;;;-3.90;99.90;;;;;;5090337;28;20055;-71
2022/01/12 04:21:01;;;;;;;21.25;11.52;;;-3.90;99.90;;;;;;5090085;28;20047;-71
2022/01/12 04:23:27;;;;;;;21.42;11.90;;;-3.90;99.90;;;;;;5091793;28;20380;-71
2022/01/12 04:25:58;;;;;;;20.75;12.00;;;-3.90;99.90;;;;;;5091615;28;20028;-71
2022/01/12 04:28:26;;;;;;;23.05;11.90;;;-3.90;99.90;;;;;;5091573;28;20759;-71
2022/01/12 04:30:53;;;;;;;22.65;11.43;;;-3.90;99.90;;;;;;5092297;28;20036;-71
2022/01/12 04:33:20;;;;;;;21.00;11.80;;;-3.90;99.90;;;;;;5090982;28;20024;-71
2022/01/12 04:35:53;;;;;;;18.63;11.57;;;-3.90;99.90;;;;;;5092597;28;20035;-71
2022/01/12 04:38:24;;;;;;;22.73;11.63;;;-3.90;99.90;;;;;;5088402;28;20114;-72
2022/01/12 04:40:51;;;;;;;21.98;11.30;;;-4.00;99.90;;;;;;5071597;28;20035;-71
2022/01/12 04:43:18;;;;;;;25.23;13.23;;;-4.00;99.90;;;;;;5070751;28;20065;-71
2022/01/12 04:50:45;;;;;;;24.25;13.93;;;-4.00;99.90;;;;;;5071686;28;20052;-71
2022/01/12 04:53:12;;;;;;;28.65;14.93;;;-4.00;99.90;;;;;;5070565;28;20025;-71
2022/01/12 04:55:38;;;;;;;28.33;14.63;;;-4.00;99.90;;;;;;5079455;28;20069;-71
2022/01/12 04:58:05;;;;;;;30.27;14.63;;;-4.00;99.90;;;;;;5091279;28;20031;-71
2022/01/12 05:00:32;;;;;;;28.55;13.95;;;-4.00;99.90;;;;;;5091479;28;20051;-70
2022/01/12 05:13:42;;;;;;;25.67;13.35;;;-4.00;99.90;;;;;;5091450;28;20035;-70
2022/01/12 05:16:12;;;;;;;27.38;14.57;;;-4.10;99.90;;;;;;5091075;28;20024;-69
2022/01/12 05:18:40;;;;;;;29.17;16.15;;;-4.10;99.90;;;;;;5091328;28;20036;-71
2022/01/12 05:21:06;;;;;;;30.30;15.57;;;-4.10;99.90;;;;;;5091871;28;20036;-71
2022/01/12 05:23:33;;;;;;;29.80;15.77;;;-4.10;99.90;;;;;;5091011;28;20023;-71
2022/01/12 05:26:00;;;;;;;31.55;15.90;;;-4.10;99.90;;;;;;5091523;28;20024;-71
2022/01/12 05:28:27;;;;;;;33.88;16.65;;;-4.10;99.90;;;;;;5088984;28;20523;-72
2022/01/12 05:30:54;;;;;;;28.25;16.10;;;-4.10;99.90;;;;;;5091701;28;20093;-72
2022/01/12 05:33:22;;;;;;;27.70;15.30;;;-4.10;99.90;;;;;;5081247;28;20030;-71
2022/01/12 05:35:48;;;;;;;27.65;16.35;;;-4.10;99.90;;;;;;5091299;28;20059;-72
2022/01/12 05:38:15;;;;;;;36.03;16.77;;;-4.10;99.90;;;;;;5090574;28;20125;-70
2022/01/12 05:40:46;;;;;;;35.38;17.60;;;-4.10;99.90;;;;;;5091425;28;20416;-71
2022/01/12 05:43:12;;;;;;;31.95;16.45;;;-4.10;99.90;;;;;;5072357;28;20032;-70
2022/01/12 05:45:39;;;;;;;34.70;18.15;;;-4.10;99.90;;;;;;5091471;28;20032;-70
2022/01/12 05:50:35;;;;;;;32.78;18.30;;;-4.00;99.90;;;;;;5090908;28;20048;-71
2022/01/12 05:53:01;;;;;;;33.45;16.77;;;-3.90;99.90;;;;;;5091602;28;20038;-71
2022/01/12 05:55:27;;;;;;;30.73;17.42;;;-3.90;99.90;;;;;;5090504;28;20028;-71
2022/01/12 05:57:53;;;;;;;35.45;19.13;;;-3.90;99.90;;;;;;5090311;28;20024;-70
2022/01/12 06:00:20;;;;;;;38.38;20.08;;;-3.90;99.90;;;;;;5090530;28;20032;-71
2022/01/12 06:02:46;;;;;;;35.65;19.58;;;-3.80;99.90;;;;;;5091496;28;20020;-71
2022/01/12 06:05:14;;;;;;;36.33;18.75;;;-3.80;99.90;;;;;;5093438;28;20472;-71
2022/01/12 06:07:41;;;;;;;34.90;18.55;;;-3.80;99.90;;;;;;5094369;28;20090;-71
2022/01/12 06:10:07;;;;;;;37.35;18.38;;;-3.90;99.90;;;;;;5094556;28;20036;-70
2022/01/12 06:12:33;;;;;;;34.47;19.63;;;-3.90;99.90;;;;;;5094454;28;20086;-73
2022/01/12 06:14:59;;;;;;;39.78;20.08;;;-3.90;99.90;;;;;;5094924;28;20420;-71
2022/01/12 06:17:25;;;;;;;40.90;20.73;;;-3.90;99.90;;;;;;5093453;28;20035;-70
2022/01/12 06:19:50;;;;;;;35.42;20.27;;;-4.00;99.90;;;;;;5094102;28;20036;-71
2022/01/12 06:22:16;;;;;;;36.88;19.73;;;-4.00;99.90;;;;;;5094186;28;20100;-71
2022/01/12 06:24:42;;;;;;;34.03;17.85;;;-4.00;99.90;;;;;;5094128;28;20032;-71
2022/01/12 06:27:09;;;;;;;32.95;17.83;;;-4.00;99.90;;;;;;5086029;28;20043;-70
2022/01/12 06:29:42;;;;;;;37.58;19.50;;;-4.00;99.90;;;;;;5074075;28;20037;-71
2022/01/12 06:32:08;;;;;;;36.33;19.33;;;-4.00;99.90;;;;;;5094206;28;20027;-70
2022/01/12 06:34:34;;;;;;;34.53;17.73;;;-4.10;99.90;;;;;;5094473;28;20028;-71
2022/01/12 06:37:00;;;;;;;38.80;19.08;;;-4.10;99.90;;;;;;5093057;28;20016;-71
2022/01/12 06:39:26;;;;;;;32.30;17.92;;;-4.20;99.90;;;;;;5092775;28;20028;-72
2022/01/12 06:41:55;;;;;;;45.17;21.63;;;-4.20;99.90;;;;;;5093585;28;20039;-72
2022/01/12 06:44:21;;;;;;;43.20;21.80;;;-4.20;99.90;;;;;;5092949;28;20638;-71
2022/01/12 06:46:49;;;;;;;46.38;22.98;;;-4.10;99.90;;;;;;5091459;28;20465;-72
2022/01/12 06:49:16;;;;;;;44.28;22.10;;;-4.00;99.90;;;;;;5090470;28;20047;-71
2022/01/12 06:51:45;;;;;;;43.20;22.25;;;-4.00;99.90;;;;;;5093722;28;20044;-72
2022/01/12 06:54:12;;;;;;;41.65;21.65;;;-4.00;99.90;;;;;;5092861;28;20463;-71
2022/01/12 06:56:39;;;;;;;41.65;22.42;;;-3.90;99.90;;;;;;5094191;28;20040;-72
2022/01/12 06:59:06;;;;;;;42.53;22.52;;;-3.80;99.90;;;;;;5094402;28;20417;-71
2022/01/12 07:01:32;;;;;;;38.85;21.33;;;-3.70;99.90;;;;;;5093244;28;20384;-72
2022/01/12 07:03:58;;;;;;;40.38;22.48;;;-3.60;99.90;;;;;;5093612;28;20036;-76
2022/01/12 07:06:24;;;;;;;39.33;20.95;;;-3.40;99.90;;;;;;5092947;28;20512;-72
2022/01/12 07:08:50;;;;;;;40.70;21.45;;;-3.30;99.90;;;;;;5091788;28;20029;-70
2022/01/12 07:11:16;;;;;;;37.88;20.17;;;-3.20;99.90;;;;;;5089608;28;20025;-69
2022/01/12 07:13:41;;;;;;;38.58;21.20;;;-3.20;99.90;;;;;;5077314;28;20453;-70
2022/01/12 07:16:07;;;;;;;36.58;20.08;;;-3.10;99.90;;;;;;5094377;28;20024;-71
2022/01/12 07:18:33;;;;;;;34.40;19.60;;;-3.10;99.90;;;;;;5093613;28;20436;-70
2022/01/12 07:20:59;;;;;;;37.83;19.38;;;-3.10;99.90;;;;;;5084264;28;20048;-72
2022/01/12 07:23:28;;;;;;;41.78;21.52;;;-3.20;99.90;;;;;;5092388;28;20370;-70
2022/01/12 07:25:54;;;;;;;36.08;20.48;;;-3.10;99.90;;;;;;5093403;28;20065;-71
2022/01/12 07:28:21;;;;;;;40.17;19.83;;;-2.90;99.90;;;;;;5093199;28;20027;-71
2022/01/12 07:30:46;;;;;;;35.10;19.15;;;-2.80;99.90;;;;;;5092585;28;20047;-74
2022/01/12 07:33:14;;;;;;;32.20;18.92;;;-2.70;99.90;;;;;;5093241;28;20469;-71
2022/01/12 07:35:40;;;;;;;36.35;19.90;;;-2.70;99.90;;;;;;5091949;28;20457;-72
2022/01/12 07:38:07;;;;;;;35.97;19.30;;;-2.70;99.90;;;;;;5084596;28;20062;-70
2022/01/12 07:40:35;;;;;;;32.33;19.45;;;-2.70;99.90;;;;;;5092577;28;20067;-71
2022/01/12 07:43:01;;;;;;;35.80;19.05;;;-2.70;99.90;;;;;;5091789;28;20020;-71
2022/01/12 07:45:30;;;;;;;33.88;19.08;;;-2.70;99.90;;;;;;5092074;28;20510;-72
2022/01/12 07:47:56;;;;;;;35.47;19.90;;;-2.70;99.90;;;;;;5092944;28;20028;-71
2022/01/12 07:50:21;;;;;;;35.63;20.27;;;-2.70;99.90;;;;;;5091617;28;20109;-71
2022/01/12 07:52:48;;;;;;;31.90;17.77;;;-2.70;99.90;;;;;;5093156;28;20028;-72
2022/01/12 07:55:14;;;;;;;34.30;18.50;;;-2.70;99.90;;;;;;5092326;28;20388;-70
2022/01/12 07:57:42;;;;;;;30.67;18.08;;;-2.70;99.90;;;;;;5093337;28;20024;-71
2022/01/12 08:00:08;;;;;;;31.48;17.95;;;-2.60;99.90;;;;;;5093011;28;20150;-71
2022/01/12 08:02:34;;;;;;;34.75;19.55;;;-2.60;99.90;;;;;;5092420;28;20495;-71
2022/01/12 08:05:00;;;;;;;31.33;18.75;;;-2.50;99.90;;;;;;5092806;28;20111;-71
2022/01/12 08:07:25;;;;;;;31.45;17.95;;;-2.50;99.90;;;;;;5092497;28;20066;-70
2022/01/12 08:09:51;;;;;;;28.90;16.98;;;-2.40;99.90;;;;;;5088288;28;20027;-71
2022/01/12 08:12:16;;;;;;;26.27;16.67;;;-2.40;99.90;;;;;;5091617;28;20036;-71
2022/01/12 08:14:42;;;;;;;26.75;16.52;;;-2.30;99.90;;;;;;5089507;28;20032;-71
2022/01/12 08:17:08;;;;;;;27.15;16.38;;;-2.30;99.90;;;;;;5090633;28;20024;-71
2022/01/12 08:19:36;;;;;;;28.67;17.20;;;-2.30;99.90;;;;;;5092563;28;20036;-72
2022/01/12 08:22:04;;;;;;;27.80;17.80;;;-2.30;99.90;;;;;;5092687;28;20036;-71
2022/01/12 08:24:30;;;;;;;31.42;18.92;;;-2.20;99.90;;;;;;5091874;28;20052;-71
2022/01/12 08:26:55;;;;;;;30.67;17.88;;;-2.20;99.90;;;;;;5091819;28;20436;-71
2022/01/12 08:29:22;;;;;;;31.05;18.02;;;-2.10;99.90;;;;;;5091415;28;20024;-71
2022/01/12 08:31:48;;;;;;;30.45;17.20;;;-2.00;99.90;;;;;;5092317;28;20039;-71
2022/01/12 08:34:14;;;;;;;29.42;17.17;;;-1.90;99.90;;;;;;5091886;28;20020;-70
2022/01/12 08:36:41;;;;;;;28.88;16.95;;;-1.80;99.90;;;;;;5092469;28;20035;-71
2022/01/12 08:39:08;;;;;;;24.95;15.52;;;-1.60;99.90;;;;;;5087226;28;20389;-71
2022/01/12 08:41:38;;;;;;;27.35;15.93;;;-1.60;99.90;;;;;;5085080;28;20059;-71
2022/01/12 08:44:05;;;;;;;25.52;16.10;;;-1.50;99.90;;;;;;5054406;28;20111;-71
2022/01/12 08:46:31;;;;;;;28.58;16.15;;;-1.50;99.90;;;;;;5071452;28;20032;-70
2022/01/12 08:48:57;;;;;;;26.58;15.98;;;-1.50;99.90;;;;;;5071654;28;20048;-70
2022/01/12 08:51:22;;;;;;;26.13;16.38;;;-1.50;99.90;;;;;;5071180;28;20072;-70
2022/01/12 08:53:48;;;;;;;24.45;13.93;;;-1.50;99.90;;;;;;5072203;28;20111;-71
2022/01/12 08:56:14;;;;;;;30.27;16.50;;;-1.50;99.90;;;;;;5071388;28;20028;-69
2022/01/12 08:58:40;;;;;;;28.75;16.73;;;-1.50;99.90;;;;;;5072025;28;20378;-70
2022/01/12 09:01:06;;;;;;;30.77;17.05;;;-1.50;99.90;;;;;;5053830;28;20487;-70
2022/01/12 09:03:32;;;;;;;29.02;17.45;;;-1.50;99.90;;;;;;5071364;28;20362;-70
2022/01/12 09:05:57;;;;;;;29.45;17.48;;;-1.50;99.90;;;;;;5071672;28;20039;-70
2022/01/12 09:08:23;;;;;;;36.13;18.80;;;-1.60;99.90;;;;;;5071419;28;20028;-69
2022/01/12 09:10:49;;;;;;;34.22;18.90;;;-1.50;99.90;;;;;;5075481;28;20044;-70
2022/01/12 09:13:15;;;;;;;33.67;19.27;;;-1.50;99.90;;;;;;5090945;28;20067;-69
2022/01/12 09:15:41;;;;;;;33.78;18.30;;;-1.50;99.90;;;;;;5091997;28;20035;-70
2022/01/12 09:18:06;;;;;;;32.42;19.33;;;-1.40;99.90;;;;;;5091705;28;20030;-70
2022/01/12 09:20:32;;;;;;;36.92;20.13;;;-1.50;99.90;;;;;;5091813;28;20038;-71
2022/01/12 09:22:58;;;;;;;34.08;18.95;;;-1.50;99.90;;;;;;5091880;28;20027;-70
2022/01/12 09:25:24;;;;;;;32.53;19.17;;;-1.50;99.90;;;;;;5091389;28;20024;-70
2022/01/12 09:27:50;;;;;;;31.55;18.70;;;-1.50;99.90;;;;;;5091787;28;20055;-70
2022/01/12 09:30:18;;;;;;;28.75;16.83;;;-1.40;99.90;;;;;;5090964;28;20119;-70
2022/01/12 09:32:44;;;;;;;29.05;16.33;;;-1.40;99.90;;;;;;5091723;28;20067;-72
2022/01/12 09:35:11;;;;;;;30.02;17.00;;;-1.30;99.90;;;;;;5091821;28;20060;-72
2022/01/12 09:37:36;;;;;;;26.23;15.30;;;-1.20;99.90;;;;;;5091151;28;20102;-72
2022/01/12 09:40:03;;;;;;;25.40;15.63;;;-1.10;99.90;;;;;;5090845;28;20024;-69
2022/01/12 09:42:29;;;;;;;29.52;16.55;;;-1.00;99.90;;;;;;5079260;28;20039;-70
2022/01/12 09:44:56;;;;;;;28.20;16.25;;;-0.90;99.90;;;;;;5075777;28;20457;-71
2022/01/12 09:47:21;;;;;;;28.17;17.75;;;-0.80;99.90;;;;;;5074923;28;20129;-72
2022/01/12 09:49:47;;;;;;;26.65;15.63;;;-0.70;99.90;;;;;;5078690;28;20123;-70
2022/01/12 09:52:14;;;;;;;21.27;13.70;;;-0.50;99.90;;;;;;5096421;28;20120;-72
2022/01/12 09:54:40;;;;;;;19.63;12.88;;;-0.50;99.90;;;;;;5094146;28;20127;-70
2022/01/12 09:57:06;;;;;;;17.58;12.50;;;-0.40;99.90;;;;;;5096719;28;20072;-70
2022/01/12 09:59:32;;;;;;;19.13;11.68;;;-0.30;99.90;;;;;;5096099;28;20051;-71
2022/01/12 10:01:59;;;;;;;16.23;11.30;;;-0.20;99.90;;;;;;5095604;28;20165;-71
2022/01/12 10:04:28;;;;;;;19.55;12.18;;;-0.20;99.90;;;;;;5084958;28;20038;-70
2022/01/12 10:06:58;;;;;;;16.45;11.35;;;-0.10;99.90;;;;;;5095272;28;20381;-71
2022/01/12 10:09:36;;;;;;;19.60;12.65;;;-0.10;99.90;;;;;;5094941;28;20457;-70
2022/01/12 10:12:05;;;;;;;15.73;11.05;;;-0.10;99.90;;;;;;5079573;28;20033;-71
2022/01/12 10:14:43;;;;;;;15.33;9.43;;;0.00;99.90;;;;;;5074315;28;20028;-71
2022/01/12 10:17:10;;;;;;;18.75;11.77;;;0.10;99.90;;;;;;5080601;28;20366;-71
2022/01/12 10:19:36;;;;;;;22.35;13.43;;;0.10;99.90;;;;;;5094564;28;20103;-71
2022/01/12 10:22:05;;;;;;;21.80;13.60;;;0.10;99.90;;;;;;5094949;28;20115;-71
2022/01/12 10:24:35;;;;;;;19.38;12.05;;;0.20;99.90;;;;;;5094665;28;20146;-72
2022/01/12 10:27:00;;;;;;;22.42;13.52;;;0.20;99.90;;;;;;5086717;28;20381;-71
2022/01/12 10:29:28;;;;;;;17.60;11.18;;;0.30;99.90;;;;;;5094624;28;20024;-71
2022/01/12 10:32:02;;;;;;;16.95;10.50;;;0.40;99.90;;;;;;5096006;28;20036;-71
2022/01/12 10:34:36;;;;;;;21.50;13.40;;;0.40;99.90;;;;;;5094178;28;20085;-72
2022/01/12 10:37:07;;;;;;;20.42;11.73;;;0.40;99.90;;;;;;5095107;28;20082;-71
2022/01/12 10:39:33;;;;;;;20.48;12.35;;;0.50;99.90;;;;;;5093531;28;20027;-71
2022/01/12 10:42:08;;;;;;;20.10;12.45;;;0.60;99.90;;;;;;5086619;28;20032;-71
2022/01/12 10:44:40;;;;;;;23.48;12.75;;;0.60;99.90;;;;;;5092868;28;20031;-71
2022/01/12 10:47:20;;;;;;;21.10;12.85;;;0.50;99.90;;;;;;5094910;28;20031;-72
2022/01/12 10:49:54;;;;;;;19.92;12.50;;;0.40;99.90;;;;;;5094497;28;20036;-72
2022/01/12 10:52:22;;;;;;;21.13;13.13;;;0.30;99.90;;;;;;5093620;28;20058;-71
2022/01/12 10:54:53;;;;;;;18.95;12.65;;;0.30;99.90;;;;;;5094664;28;20102;-72
2022/01/12 10:57:30;;;;;;;20.15;12.52;;;0.40;99.90;;;;;;5090803;28;20032;-71
2022/01/12 11:00:18;;;;;;;20.15;12.60;;;0.50;99.90;;;;;;5091860;28;20024;-71
2022/01/12 11:02:48;;;;;;;24.48;13.52;;;0.60;99.90;;;;;;5093109;28;20034;-70
2022/01/12 11:05:15;;;;;;;22.77;13.02;;;0.70;99.90;;;;;;5094212;28;20465;-71
2022/01/12 11:07:41;;;;;;;27.10;13.93;;;0.80;99.90;;;;;;5093585;28;20069;-70
2022/01/12 11:10:10;;;;;;;29.23;15.77;;;0.80;99.90;;;;;;5093904;28;20027;-71
2022/01/12 11:12:36;;;;;;;25.85;15.48;;;0.90;99.90;;;;;;5084925;28;20039;-70
2022/01/12 11:15:09;;;;;;;21.65;13.32;;;1.00;99.90;;;;;;5093873;28;20028;-70
2022/01/12 11:17:34;;;;;;;18.50;11.95;;;1.00;99.90;;;;;;5093327;28;20182;-71
2022/01/12 11:20:17;;;;;;;21.20;12.35;;;1.10;99.90;;;;;;5093952;28;20133;-71
2022/01/12 11:22:56;;;;;;;24.20;13.10;;;1.00;99.90;;;;;;5093647;28;20373;-73
2022/01/12 11:25:27;;;;;;;23.17;12.40;;;1.10;99.90;;;;;;5072855;28;20021;-71
2022/01/12 11:28:26;;;;;;;18.75;12.48;;;1.10;99.90;;;;;;5073556;28;20034;-74
2022/01/12 11:30:52;;;;;;;24.25;12.38;;;1.10;99.90;;;;;;5073104;28;20436;-74
2022/01/12 11:33:34;;;;;;;18.38;11.55;;;1.20;99.90;;;;;;5073694;28;20025;-74
2022/01/12 11:36:20;;;;;;;18.58;12.70;;;1.20;99.90;;;;;;5073350;28;20046;-69
2022/01/12 11:38:50;;;;;;;21.15;12.45;;;1.20;99.90;;;;;;5073107;28;20547;-68
2022/01/12 11:41:25;;;;;;;;;;;1.20;99.90;;;;;;5073809;28;20094;-71
2022/01/12 11:43:53;;;;;;;28.00;12.88;;;1.10;99.90;;;;;;5083752;28;19907;-69
2022/01/12 11:46:23;;;;;;;20.33;11.95;;;1.20;99.90;;;;;;5093475;28;20101;-73
2022/01/12 11:48:53;;;;;;;23.17;12.20;;;1.40;99.90;;;;;;5092974;28;20105;-71
2022/01/12 11:51:31;;;;;;;23.00;12.73;;;1.50;99.90;;;;;;5090082;28;20086;-76
2022/01/12 11:54:05;;;;;;;20.55;12.23;;;1.50;99.90;;;;;;5072294;28;20081;-76
2022/01/12 11:56:30;;;;;;;24.02;13.35;;;1.50;99.90;;;;;;5070973;28;20103;-75
2022/01/12 11:59:14;;;;;;;20.25;12.85;;;1.60;99.90;;;;;;5084528;28;20028;-71
2022/01/12 12:01:48;;;;;;;20.20;13.40;;;1.60;99.90;;;;;;5074431;28;20027;-71
2022/01/12 12:04:21;;;;;;;18.17;11.70;;;1.60;99.90;;;;;;5093255;28;20047;-72
2022/01/12 12:06:47;;;;;;;20.00;12.68;;;1.60;99.90;;;;;;5092991;28;20045;-72
2022/01/12 12:09:18;;;;;;;20.80;13.32;;;1.60;99.90;;;;;;5093233;28;20050;-71
2022/01/12 12:11:51;;;;;;;18.83;12.13;;;1.60;99.90;;;;;;5084721;28;20064;-70
2022/01/12 12:14:18;;;;;;;17.02;11.38;;;1.50;99.90;;;;;;5087783;28;20028;-70
2022/01/12 12:16:45;;;;;;;19.15;11.82;;;1.50;99.90;;;;;;5092320;28;20051;-70
2022/01/12 12:19:11;;;;;;;18.10;11.32;;;1.50;99.90;;;;;;5093102;28;20024;-70
2022/01/12 12:21:39;;;;;;;17.02;10.93;;;1.50;99.90;;;;;;5092251;28;20529;-70
2022/01/12 12:24:13;;;;;;;18.77;11.18;;;1.50;99.90;;;;;;5091417;28;20031;-70
2022/01/12 12:26:59;;;;;;;15.45;10.07;;;1.50;99.90;;;;;;5091876;28;20370;-70
2022/01/12 12:29:26;;;;;;;19.77;10.85;;;1.60;99.90;;;;;;5091491;28;20032;-70
2022/01/12 12:31:54;;;;;;;17.55;11.07;;;1.60;99.90;;;;;;5092279;28;20039;-70
2022/01/12 12:34:28;;;;;;;19.17;12.15;;;1.80;99.90;;;;;;5091342;28;20035;-72
2022/01/12 12:36:58;;;;;;;19.40;11.60;;;1.70;99.90;;;;;;5091670;28;20591;-70
2022/01/12 12:39:24;;;;;;;22.52;11.60;;;1.70;99.90;;;;;;5091991;28;20032;-69
2022/01/12 12:41:50;;;;;;;19.38;11.15;;;1.70;99.90;;;;;;5090803;28;20035;-70
2022/01/12 12:44:27;;;;;;;23.17;11.40;;;1.60;99.90;;;;;;5083629;28;20035;-71
2022/01/12 12:47:09;;;;;;;20.95;11.00;;;1.70;99.90;;;;;;5077726;28;20031;-70
2022/01/12 12:49:56;;;;;;;17.88;11.18;;;1.60;99.90;;;;;;5084738;28;20094;-70
2022/01/12 12:52:30;;;;;;;18.00;11.65;;;1.60;99.90;;;;;;5091632;28;20044;-71
2022/01/12 12:54:59;;;;;;;21.67;11.27;;;1.70;99.90;;;;;;5091327;28;20158;-70
2022/01/12 12:57:26;;;;;;;18.23;11.80;;;1.70;99.90;;;;;;5091134;28;20070;-70
2022/01/12 13:00:12;;;;;;;18.85;11.35;;;1.80;99.90;;;;;;5086196;28;20043;-71
2022/01/12 13:02:43;;;;;;;18.42;11.50;;;1.90;99.90;;;;;;5092858;28;20529;-70
2022/01/12 13:05:12;;;;;;;18.52;11.57;;;1.90;99.90;;;;;;5092482;28;20372;-70
2022/01/12 13:07:40;;;;;;;18.83;11.27;;;1.90;99.90;;;;;;5091076;28;20054;-70
2022/01/12 13:10:14;;;;;;;19.83;12.32;;;1.80;99.90;;;;;;5092053;28;20024;-71
2022/01/12 13:12:48;;;;;;;20.55;12.38;;;1.80;99.90;;;;;;5091002;28;20024;-70
2022/01/12 13:15:38;;;;;;;19.40;12.85;;;1.80;99.90;;;;;;5074519;28;20024;-71
2022/01/12 13:18:26;;;;;;;18.98;12.27;;;1.90;99.90;;;;;;5071647;28;20432;-72
2022/01/12 13:21:10;;;;;;;20.10;12.30;;;1.90;99.90;;;;;;5071528;28;20032;-71
2022/01/12 13:23:45;;;;;;;16.77;11.25;;;1.90;99.90;;;;;;5077161;28;20024;-71
2022/01/12 13:26:14;;;;;;;17.77;10.68;;;1.90;99.90;;;;;;5091928;28;20028;-71
2022/01/12 13:28:45;;;;;;;18.15;12.15;;;1.80;99.90;;;;;;5091526;28;20035;-71
2022/01/12 13:31:14;;;;;;;23.52;12.15;;;1.90;99.90;;;;;;5091868;28;20158;-71
2022/01/12 13:33:42;;;;;;;20.35;12.68;;;1.90;99.90;;;;;;5082179;28;20376;-71
2022/01/12 13:36:17;;;;;;;19.02;11.75;;;2.00;99.90;;;;;;5092976;28;20034;-72
2022/01/12 13:38:48;;;;;;;19.48;12.45;;;1.90;99.90;;;;;;5091764;28;20028;-71
2022/01/12 13:41:22;;;;;;;19.00;12.85;;;1.90;99.90;;;;;;5082433;28;20024;-70
2022/01/12 13:44:06;;;;;;;17.27;10.55;;;1.90;99.90;;;;;;5070051;28;20029;-70
2022/01/12 13:46:35;;;;;;;19.90;11.45;;;1.90;99.90;;;;;;5070748;28;20439;-70
2022/01/12 13:49:10;;;;;;;18.40;11.75;;;2.00;99.90;;;;;;5079669;28;20048;-70
2022/01/12 13:51:37;;;;;;;20.50;10.90;;;2.00;99.90;;;;;;5091009;28;20377;-72
2022/01/12 13:54:11;;;;;;;18.67;11.60;;;2.10;99.90;;;;;;5091699;28;20064;-73
2022/01/12 13:56:42;;;;;;;16.58;11.13;;;2.00;99.90;;;;;;5090956;28;20024;-72
2022/01/12 13:59:08;;;;;;;18.27;11.25;;;2.00;99.90;;;;;;5091999;28;20034;-72
2022/01/12 14:01:36;;;;;;;18.23;11.43;;;2.00;99.90;;;;;;5091127;28;20089;-72
2022/01/12 14:04:16;;;;;;;18.88;12.02;;;1.90;99.90;;;;;;5085854;28;20020;-70
2022/01/12 14:06:47;;;;;;;14.95;10.90;;;1.90;99.90;;;;;;5090958;28;20028;-71